Time;durP1;ratioP1;P1;durP2;ratioP2;P2;SDS_P1;SDS_P2;PMS_P1;PMS_P2;Temp;Humidity;BMP_temperature;BMP_pressure;BME280_temperature;BME280_humidity;BME280_pressure;Samples;Min_cycle;Max_cycle;Signal;HPM_P1;HPM_P2
2022/01/22 00:00:36;;;;;;;11.80;6.47;;;;;;;-0.42;100.00;101211.53;5039193;28;21277;-76
2022/01/22 00:03:03;;;;;;;9.77;6.07;;;;;;;-0.40;100.00;101209.00;5037461;28;20222;-77
2022/01/22 00:05:29;;;;;;;10.50;6.47;;;;;;;-0.37;100.00;101209.06;5041941;28;20203;-77
2022/01/22 00:07:55;;;;;;;12.30;7.23;;;;;;;-0.30;100.00;101210.13;5040360;28;20219;-78
2022/01/22 00:10:23;;;;;;;10.57;6.37;;;;;;;-0.27;100.00;101208.50;5036017;28;20196;-77
2022/01/22 00:14:23;;;;;;;12.20;7.00;;;;;;;-0.25;100.00;101211.97;5040545;28;20645;-78
2022/01/22 00:15:55;;;;;;;11.37;6.30;;;;;;;-0.22;100.00;101208.66;5036346;28;20299;-78
2022/01/22 00:18:22;;;;;;;14.07;7.57;;;;;;;-0.17;100.00;101212.19;5042397;28;20840;-77
2022/01/22 00:20:48;;;;;;;10.97;6.63;;;;;;;-0.14;100.00;101216.53;5037790;28;20224;-77
2022/01/22 00:23:19;;;;;;;13.53;7.47;;;;;;;-0.11;100.00;101211.50;5044805;28;20679;-77
2022/01/22 00:25:46;;;;;;;13.53;7.17;;;;;;;-0.09;100.00;101213.28;5038702;28;20214;-77
2022/01/22 00:28:13;;;;;;;12.27;6.83;;;;;;;-0.08;100.00;101204.75;5036656;28;20239;-78
2022/01/22 00:30:39;;;;;;;11.27;7.13;;;;;;;-0.07;100.00;101203.94;5037204;28;20199;-77
2022/01/22 00:33:06;;;;;;;13.20;6.50;;;;;;;-0.01;100.00;101210.91;5045733;28;20202;-77
2022/01/22 00:35:32;;;;;;;11.03;6.97;;;;;;;0.02;100.00;101215.25;5052366;28;20208;-77
2022/01/22 00:38:00;;;;;;;13.63;6.80;;;;;;;0.03;100.00;101212.72;5039680;28;20237;-77
2022/01/22 00:40:26;;;;;;;14.57;7.30;;;;;;;0.04;100.00;101211.03;5040642;28;20210;-77
2022/01/22 00:42:54;;;;;;;12.80;6.70;;;;;;;0.07;100.00;101213.66;5056587;28;20600;-77
2022/01/22 00:45:21;;;;;;;10.27;6.60;;;;;;;0.06;100.00;101212.81;5037616;28;20196;-77
2022/01/22 00:47:48;;;;;;;13.37;6.53;;;;;;;0.06;100.00;101212.81;5038273;28;20230;-77
2022/01/22 00:50:17;;;;;;;11.87;6.93;;;;;;;0.09;100.00;101209.44;5038334;28;20206;-77
2022/01/22 00:52:45;;;;;;;14.10;6.73;;;;;;;0.10;100.00;101216.31;5038981;28;20605;-77
2022/01/22 00:55:13;;;;;;;10.30;6.17;;;;;;;0.13;100.00;101211.28;5047577;28;20543;-77
2022/01/22 00:57:40;;;;;;;12.30;6.10;;;;;;;0.15;100.00;101214.75;5039383;28;20234;-77
2022/01/22 01:00:11;;;;;;;10.50;6.13;;;;;;;0.16;100.00;101216.50;5033719;28;20205;-77
2022/01/22 01:02:38;;;;;;;12.20;6.77;;;;;;;0.17;100.00;101218.22;5036080;28;20594;-77
2022/01/22 01:05:07;;;;;;;14.70;6.67;;;;;;;0.22;100.00;101216.63;5042976;28;20212;-77
2022/01/22 01:07:34;;;;;;;8.13;5.50;;;;;;;0.24;100.00;101221.81;5038243;28;20226;-76
2022/01/22 01:10:00;;;;;;;10.50;6.33;;;;;;;0.24;100.00;101216.69;5036797;28;20210;-77
2022/01/22 01:12:27;;;;;;;9.43;6.03;;;;;;;0.25;100.00;101216.72;5036517;28;20199;-76
2022/01/22 01:15:09;;;;;;;9.07;5.90;;;;;;;0.28;100.00;101221.06;5040560;28;20627;-76
2022/01/22 01:17:58;;;;;;;9.87;5.57;;;;;;;0.30;100.00;101216.81;5034893;28;20219;-76
2022/01/22 01:34:12;;;;;;;6.70;4.30;;;;;;;0.59;100.00;101221.81;5037718;28;20689;-76
2022/01/22 01:36:40;;;;;;;8.27;4.57;;;;;;;0.61;100.00;101223.59;5041547;28;20674;-76
2022/01/22 01:39:12;;;;;;;6.37;4.20;;;;;;;0.64;100.00;101221.09;5036303;28;20517;-76
2022/01/22 01:41:48;;;;;;;6.50;3.87;;;;;;;0.66;100.00;101216.00;5039433;28;20242;-76
2022/01/22 01:44:16;;;;;;;10.07;4.83;;;;;;;0.69;100.00;101223.78;5037726;28;20202;-76
2022/01/22 01:46:56;;;;;;;7.50;4.47;;;;;;;0.71;100.00;101217.84;5039821;28;20237;-76
2022/01/22 01:49:25;;;;;;;6.83;4.30;;;;;;;0.74;100.00;101235.91;5036818;28;20639;-76
2022/01/22 01:51:54;;;;;;;8.00;4.23;;;;;;;0.77;100.00;101229.94;5037287;28;20261;-76
2022/01/22 01:54:31;;;;;;;6.93;4.23;;;;;;;0.80;100.00;101229.16;5045926;28;20644;-76
2022/01/22 01:59:46;;;;;;;5.90;3.77;;;;;;;0.85;100.00;101232.72;5037176;28;20685;-76
2022/01/22 02:02:20;;;;;;;7.13;4.53;;;;;;;0.88;100.00;101236.22;5039735;28;20350;-76
2022/01/22 02:04:48;;;;;;;6.83;4.83;;;;;;;0.94;100.00;101238.91;5038984;28;20198;-75
2022/01/22 02:07:14;;;;;;;9.07;4.30;;;;;;;0.91;100.00;101241.41;5037005;28;20230;-75
2022/01/22 02:09:47;;;;;;;6.83;4.10;;;;;;;0.94;100.00;101241.47;5037099;28;20213;-76
2022/01/22 02:12:20;;;;;;;5.90;3.97;;;;;;;0.94;100.00;101248.34;5037187;28;20203;-76
2022/01/22 02:23:36;;;;;;;7.23;4.30;;;;;;;1.03;100.00;101271.66;5037873;28;20233;-75
2022/01/22 02:26:04;;;;;;;6.20;4.00;;;;;;;1.09;100.00;101263.22;5037890;28;21862;-76
2022/01/22 02:28:36;;;;;;;5.63;3.50;;;;;;;1.09;100.00;101266.66;5035807;28;20250;-75
2022/01/22 02:31:10;;;;;;;4.97;3.53;;;;;;;1.10;100.00;101265.81;5033734;28;20203;-75
2022/01/22 02:34:00;;;;;;;4.30;3.27;;;;;;;1.14;100.00;101266.75;5035720;28;20217;-76
2022/01/22 02:36:32;;;;;;;4.00;3.10;;;;;;;1.12;100.00;101269.28;5041871;28;21181;-76
2022/01/22 02:39:10;;;;;;;4.23;3.30;;;;;;;1.15;100.00;101273.63;5032889;28;20207;-75
2022/01/22 02:41:42;;;;;;;4.30;2.80;;;;;;;1.13;100.00;101268.47;5035006;28;20635;-76
2022/01/22 02:44:11;;;;;;;3.50;2.50;;;;;;;1.12;100.00;101271.00;5052911;28;20570;-76
2022/01/22 02:46:41;;;;;;;3.40;2.40;;;;;;;1.14;100.00;101271.88;5037721;28;20318;-76
2022/01/22 02:49:08;;;;;;;3.03;2.60;;;;;;;1.12;100.00;101274.41;5052154;28;20207;-76
2022/01/22 02:51:35;;;;;;;2.67;2.23;;;;;;;1.09;100.00;101279.50;5033955;28;20229;-75
2022/01/22 02:54:04;;;;;;;5.37;2.50;;;;;;;1.07;100.00;101273.47;5036620;28;21382;-76
2022/01/22 02:56:31;;;;;;;4.20;2.27;;;;;;;1.09;100.00;101296.59;5037493;28;20233;-76
2022/01/22 02:59:00;;;;;;;3.40;2.17;;;;;;;1.08;100.00;101298.31;5054128;28;20563;-76
2022/01/22 03:01:27;;;;;;;2.97;2.23;;;;;;;1.10;100.00;101290.63;5034720;28;20290;-76
2022/01/22 03:03:55;;;;;;;2.87;2.03;;;;;;;1.11;100.00;101293.25;5037479;28;20229;-75
2022/01/22 03:06:22;;;;;;;3.83;2.17;;;;;;;1.09;100.00;101305.19;5038504;28;20211;-75
2022/01/22 03:08:49;;;;;;;2.10;1.90;;;;;;;1.03;100.00;101305.03;5038494;28;20238;-76
2022/01/22 03:11:19;;;;;;;2.73;1.80;;;;;;;1.00;100.00;101310.09;5053008;28;20210;-76
2022/01/22 03:14:23;;;;;;;2.77;2.00;;;;;;;1.00;100.00;101311.81;5035188;28;20216;-76
2022/01/22 03:16:55;;;;;;;3.43;1.67;;;;;;;0.96;100.00;101317.69;5037449;28;20214;-76
2022/01/22 03:19:44;;;;;;;3.23;1.93;;;;;;;0.89;100.00;101314.97;5031825;28;20206;-76
2022/01/22 03:22:17;;;;;;;3.33;2.20;;;;;;;0.87;100.00;101320.91;5039731;28;20219;-76
2022/01/22 03:27:31;;;;;;;3.07;1.87;;;;;;;0.85;100.00;101333.72;5038001;28;20283;-75
2022/01/22 03:29:58;;;;;;;2.40;1.90;;;;;;;0.85;100.00;101341.41;5030644;28;20216;-76
2022/01/22 03:32:27;;;;;;;2.53;2.00;;;;;;;0.89;100.00;101350.91;5040080;28;20199;-76
2022/01/22 03:34:58;;;;;;;3.00;2.23;;;;;;;0.89;100.00;101358.63;5038510;28;20274;-75
2022/01/22 03:37:26;;;;;;;3.20;2.10;;;;;;;0.90;100.00;101356.94;5040430;28;20864;-75
2022/01/22 03:39:54;;;;;;;2.83;2.23;;;;;;;0.89;100.00;101360.34;5056600;28;20832;-76
2022/01/22 03:42:21;;;;;;;4.20;2.20;;;;;;;0.88;100.00;101366.28;5042455;28;20227;-75
2022/01/22 03:44:49;;;;;;;2.70;2.07;;;;;;;0.88;100.00;101377.44;5051540;28;20259;-76
2022/01/22 03:47:15;;;;;;;4.20;2.40;;;;;;;0.89;100.00;101391.16;5041669;28;20234;-75
2022/01/22 03:49:43;;;;;;;3.13;2.07;;;;;;;0.91;100.00;101392.03;5056187;28;20649;-76
2022/01/22 03:52:12;;;;;;;3.00;2.30;;;;;;;0.89;100.00;101389.44;5057032;28;20211;-75
2022/01/22 03:54:39;;;;;;;2.07;1.70;;;;;;;0.89;100.00;101397.13;5039922;28;20209;-76
2022/01/22 03:57:08;;;;;;;2.60;2.07;;;;;;;0.89;100.00;101391.16;5038604;28;20227;-76
2022/01/22 03:59:41;;;;;;;2.73;1.97;;;;;;;0.86;100.00;101391.94;5036673;28;20203;-76
2022/01/22 04:02:52;;;;;;;2.80;1.90;;;;;;;0.87;100.00;101393.66;5032284;28;20220;-76
2022/01/22 04:05:16;;;;;;;2.97;2.10;;;;;;;0.81;100.00;101398.66;5055078;28;20206;-75
2022/01/22 04:10:26;;;;;;;2.40;1.90;;;;;;;0.72;100.00;101408.66;5041473;28;20258;-76
2022/01/22 04:12:58;;;;;;;2.50;2.00;;;;;;;0.70;100.00;101415.47;5040240;28;20278;-75
2022/01/22 04:15:27;;;;;;;3.50;2.30;;;;;;;0.69;100.00;101411.16;5038495;28;20571;-76
2022/01/22 04:26:17;;;;;;;3.40;2.37;;;;;;;0.41;100.00;101428.38;5044787;28;20199;-76
2022/01/22 04:28:43;;;;;;;4.03;2.10;;;;;;;0.33;100.00;101422.13;5037216;28;20241;-76
2022/01/22 04:31:10;;;;;;;3.67;2.20;;;;;;;0.28;100.00;101433.97;5036766;28;20437;-76
2022/01/22 04:33:38;;;;;;;2.77;2.03;;;;;;;0.23;100.00;101443.22;5034091;28;20481;-75
2022/01/22 04:36:05;;;;;;;3.90;2.10;;;;;;;0.22;100.00;101444.06;5039255;28;20207;-75
2022/01/22 04:38:32;;;;;;;3.37;2.37;;;;;;;0.15;100.00;101443.84;5040070;28;20784;-76
2022/01/22 04:41:00;;;;;;;4.03;2.63;;;;;;;0.12;100.00;101454.06;5034648;28;20452;-75
2022/01/22 04:43:26;;;;;;;3.47;2.60;;;;;;;0.11;100.00;101456.56;5040063;28;20635;-75
2022/01/22 04:46:06;;;;;;;4.10;2.30;;;;;;;0.07;100.00;101459.84;5033009;28;20208;-76
2022/01/22 04:48:49;;;;;;;3.37;2.30;;;;;;;0.05;100.00;101457.22;5057291;28;20218;-75
2022/01/22 04:56:58;;;;;;;3.87;2.63;;;;;;;0.13;100.00;101478.84;5029192;28;20233;-76
2022/01/22 04:59:25;;;;;;;7.83;2.97;;;;;;;0.18;100.00;101477.31;5041214;28;20559;-75
2022/01/22 05:01:51;;;;;;;6.50;2.90;;;;;;;0.19;100.00;101478.16;5050261;28;20203;-76
2022/01/22 05:04:43;;;;;;;5.20;3.10;;;;;;;0.22;100.00;101488.53;5033749;28;20211;-76
2022/01/22 05:07:11;;;;;;;4.37;3.00;;;;;;;0.24;100.00;101489.44;5037149;28;20589;-76
2022/01/22 05:09:43;;;;;;;4.97;3.23;;;;;;;0.28;100.00;101498.97;5037798;28;20406;-76
2022/01/22 05:12:12;;;;;;;6.17;2.90;;;;;;;0.32;100.00;101494.81;5042828;28;20215;-75
2022/01/22 05:14:41;;;;;;;4.73;2.80;;;;;;;0.34;100.00;101500.84;5039577;28;20415;-76
2022/01/22 05:17:08;;;;;;;5.67;3.17;;;;;;;0.35;100.00;101507.72;5033040;28;20406;-75
2022/01/22 05:19:45;;;;;;;8.07;3.30;;;;;;;0.37;100.00;101504.38;5052831;28;20287;-75
2022/01/22 05:22:24;;;;;;;5.43;3.30;;;;;;;0.44;100.00;101510.56;5038729;28;20237;-75
2022/01/22 05:24:55;;;;;;;5.53;3.10;;;;;;;0.46;100.00;101514.03;5054850;28;20297;-77
2022/01/22 05:27:43;;;;;;;6.03;3.17;;;;;;;0.43;100.00;101510.53;5039430;28;20528;-77
2022/01/22 05:30:48;;;;;;;8.30;3.23;;;;;;;0.40;100.00;101524.09;5055586;28;20203;-77
2022/01/22 05:36:55;;;;;;;5.03;3.50;;;;;;;0.41;100.00;101530.13;5037516;28;20201;-76
2022/01/22 05:39:14;;;;;;;6.17;3.37;;;;;;;0.42;100.00;101535.28;5041208;28;20459;-76
2022/01/22 05:41:41;;;;;;;8.00;3.83;;;;;;;0.43;100.00;101539.59;5053376;28;20207;-76
2022/01/22 05:44:08;;;;;;;7.47;3.80;;;;;;;0.43;100.00;101534.47;5041044;28;20969;-76
2022/01/22 05:46:35;;;;;;;7.80;3.50;;;;;;;0.46;100.00;101539.72;5052800;28;20210;-77
2022/01/22 05:49:03;;;;;;;5.43;3.43;;;;;;;0.47;100.00;101531.16;5038447;28;20891;-76
2022/01/22 05:51:30;;;;;;;7.40;3.60;;;;;;;0.47;100.00;101536.28;5038770;28;20206;-76
2022/01/22 05:54:29;;;;;;;5.83;3.50;;;;;;;0.48;100.00;101548.31;5040747;28;20203;-76
2022/01/22 05:59:44;;;;;;;7.07;3.33;;;;;;;0.53;100.00;101558.72;5035904;28;20207;-76
2022/01/22 06:02:13;;;;;;;9.70;3.37;;;;;;;0.51;100.00;101576.66;5034107;28;20264;-76
2022/01/22 06:04:41;;;;;;;7.43;2.90;;;;;;;0.48;100.00;101567.97;5036403;28;20226;-76
2022/01/22 06:07:11;;;;;;;6.90;3.10;;;;;;;0.41;100.00;101587.44;5052910;28;20731;-76
2022/01/22 06:09:41;;;;;;;4.87;2.70;;;;;;;0.37;100.00;101585.63;5051452;28;20567;-76
2022/01/22 06:12:17;;;;;;;3.87;2.40;;;;;;;0.33;100.00;101592.31;5034662;28;20243;-76
2022/01/22 06:14:52;;;;;;;3.40;1.67;;;;;;;0.30;100.00;101588.78;5052332;28;20210;-76
2022/01/22 06:17:19;;;;;;;3.97;2.40;;;;;;;0.23;100.00;101604.81;5035464;28;20326;-75
2022/01/22 06:19:53;;;;;;;6.50;1.70;;;;;;;0.18;100.00;101605.56;5038265;28;20201;-76
2022/01/22 06:22:21;;;;;;;3.93;1.77;;;;;;;0.11;100.00;101613.00;5037836;28;20291;-76
2022/01/22 06:24:48;;;;;;;3.80;1.43;;;;;;;0.06;100.00;101624.81;5032987;28;20638;-76
2022/01/22 06:27:16;;;;;;;3.23;1.40;;;;;;;0.02;100.00;101633.19;5036839;28;20689;-76
2022/01/22 06:29:43;;;;;;;4.33;1.33;;;;;;;-0.03;100.00;101626.25;5036805;28;20304;-76
2022/01/22 06:32:12;;;;;;;4.23;1.93;;;;;;;-0.07;100.00;101634.66;5035754;28;20206;-76
2022/01/22 06:34:40;;;;;;;4.83;1.80;;;;;;;-0.10;100.00;101646.50;5035785;28;20205;-76
2022/01/22 06:37:08;;;;;;;3.50;1.80;;;;;;;-0.13;100.00;101651.53;5052686;28;20271;-76
2022/01/22 06:41:44;;;;;;;6.33;1.70;;;;;;;-0.16;100.00;101659.09;5034829;28;20301;-76
2022/01/22 06:42:48;;;;;;;3.43;1.50;;;;;;;-0.22;100.00;101658.06;5033125;28;20352;-76
2022/01/22 06:45:19;;;;;;;3.90;1.80;;;;;;;-0.26;100.00;101657.94;5034900;28;20203;-76
2022/01/22 06:47:56;;;;;;;3.47;1.90;;;;;;;-0.38;100.00;101669.47;5052506;28;20233;-76
2022/01/22 06:50:26;;;;;;;4.50;1.63;;;;;;;-0.44;100.00;101670.94;5035864;28;20207;-76
2022/01/22 06:53:06;;;;;;;3.53;1.57;;;;;;;-0.53;100.00;101686.00;5037232;28;20571;-76
2022/01/22 06:55:45;;;;;;;4.90;1.60;;;;;;;-0.60;100.00;101677.22;5030472;28;20619;-76
2022/01/22 06:58:15;;;;;;;6.77;2.13;;;;;;;-0.69;100.00;101674.31;5032847;28;20772;-76
2022/01/22 07:00:48;;;;;;;4.53;1.90;;;;;;;-0.72;100.00;101692.13;5036784;28;20214;-76
2022/01/22 07:03:26;;;;;;;5.17;1.50;;;;;;;-0.75;100.00;101692.91;5037521;28;20225;-76
2022/01/22 07:06:16;;;;;;;3.03;1.70;;;;;;;-0.81;100.00;101703.78;4997118;28;20212;-76
2022/01/22 07:08:43;;;;;;;3.97;1.83;;;;;;;-0.85;100.00;101707.03;5038413;28;20300;-76
2022/01/22 07:11:15;;;;;;;5.33;1.80;;;;;;;-0.92;100.00;101710.19;5040976;28;20293;-75
2022/01/22 07:13:46;;;;;;;2.63;1.73;;;;;;;-0.95;100.00;101717.72;5051847;28;20317;-75
2022/01/22 07:16:12;;;;;;;5.30;2.10;;;;;;;-0.98;100.00;101718.50;5041252;28;20772;-75
2022/01/22 07:18:39;;;;;;;3.97;1.80;;;;;;;-1.03;100.00;101725.13;5036668;28;20230;-75
2022/01/22 07:21:14;;;;;;;5.30;2.10;;;;;;;-1.02;100.00;101729.44;5040066;28;20207;-75
2022/01/22 07:24:22;;;;;;;4.53;2.07;;;;;;;-1.03;100.00;101726.81;5040395;28;20269;-76
2022/01/22 07:26:42;;;;;;;5.30;3.10;;;;;;;-1.11;100.00;101728.22;5034681;28;20376;-75
2022/01/22 07:29:13;;;;;;;6.07;3.17;;;;;;;-1.13;100.00;101730.69;5041488;28;20199;-75
2022/01/22 07:31:41;;;;;;;9.03;4.97;;;;;;;-1.13;100.00;101725.59;5048421;28;20237;-75
2022/01/22 07:34:10;;;;;;;13.53;5.63;;;;;;;-1.15;100.00;101737.44;5043932;28;20200;-75
2022/01/22 07:36:36;;;;;;;8.30;4.03;;;;;;;-1.16;100.00;101739.16;5043272;28;20626;-75
2022/01/22 07:39:04;;;;;;;5.67;3.20;;;;;;;-1.18;100.00;101737.31;5037795;28;20226;-75
2022/01/22 07:41:32;;;;;;;10.03;4.33;;;;;;;-1.17;100.00;101741.63;5043387;28;20225;-75
2022/01/22 07:44:22;;;;;;;6.53;3.10;;;;;;;-1.20;100.00;101752.63;5040453;28;20227;-75
2022/01/22 07:46:50;;;;;;;5.17;3.00;;;;;;;-1.20;100.00;101746.63;5058369;28;20774;-75
2022/01/22 07:49:21;;;;;;;9.53;3.10;;;;;;;-1.20;100.00;101747.50;5037897;28;20420;-75
2022/01/22 07:51:50;;;;;;;4.37;2.80;;;;;;;-1.22;100.00;101741.44;5039236;28;20421;-75
2022/01/22 07:54:16;;;;;;;6.97;2.97;;;;;;;-1.20;100.00;101750.06;5040952;28;20205;-75
2022/01/22 07:56:43;;;;;;;9.30;4.30;;;;;;;-1.21;100.00;101747.47;5037876;28;20214;-75
2022/01/22 07:59:11;;;;;;;6.33;4.50;;;;;;;-1.24;100.00;101747.34;5040252;28;20606;-75
2022/01/22 08:01:44;;;;;;;11.37;6.07;;;;;;;-1.29;100.00;101754.81;5041722;28;20293;-75
2022/01/22 08:04:23;;;;;;;8.07;3.80;;;;;;;-1.34;100.00;101757.19;5040788;28;20314;-75
2022/01/22 08:06:58;;;;;;;8.17;4.20;;;;;;;-1.31;100.00;101765.81;5039333;28;20652;-75
2022/01/22 08:09:44;;;;;;;7.27;3.67;;;;;;;-1.26;100.00;101769.44;5043839;28;20593;-75
2022/01/22 08:12:30;;;;;;;10.80;3.40;;;;;;;-1.22;100.00;101789.22;5028078;28;20203;-75
2022/01/22 08:15:04;;;;;;;7.00;3.33;;;;;;;-1.18;100.00;101779.16;5040035;28;20208;-75
2022/01/22 08:17:32;;;;;;;8.93;3.40;;;;;;;-1.08;100.00;101792.34;5057006;28;20229;-74
2022/01/22 08:19:58;;;;;;;9.33;3.73;;;;;;;-1.03;100.00;101784.00;5038614;28;20297;-75
2022/01/22 08:22:44;;;;;;;7.63;3.20;;;;;;;-0.96;100.00;101783.44;5041243;28;20690;-75
2022/01/22 08:25:46;;;;;;;8.20;3.53;;;;;;;-0.84;100.00;101787.31;5038147;28;20199;-75
2022/01/22 08:31:17;;;;;;;7.90;3.50;;;;;;;-0.71;100.00;101793.78;5040957;28;20196;-75
2022/01/22 08:36:29;;;;;;;11.20;5.13;;;;;;;-0.66;100.00;101810.19;5043585;28;20233;-75
2022/01/22 08:38:56;;;;;;;13.00;4.47;;;;;;;-0.63;100.00;101811.19;5039464;28;20238;-75
2022/01/22 08:41:24;;;;;;;10.57;5.33;;;;;;;-0.57;100.00;101815.66;5040307;28;20200;-74
2022/01/22 08:43:53;;;;;;;10.63;4.70;;;;;;;-0.56;100.00;101807.19;5035609;28;20495;-74
2022/01/22 08:46:20;;;;;;;7.10;3.63;;;;;;;-0.52;100.00;101826.97;5058991;28;20254;-74
2022/01/22 08:48:48;;;;;;;12.70;4.40;;;;;;;-0.51;100.00;101831.28;5055893;28;20255;-75
2022/01/22 08:51:14;;;;;;;6.77;3.67;;;;;;;-0.46;100.00;101826.31;5039718;28;20203;-75
2022/01/22 08:53:41;;;;;;;9.77;3.90;;;;;;;-0.36;100.00;101837.81;5035979;28;20191;-75
2022/01/22 08:56:09;;;;;;;7.67;3.27;;;;;;;-0.32;100.00;101837.09;5036324;28;20207;-75
2022/01/22 08:58:37;;;;;;;10.53;3.97;;;;;;;-0.27;100.00;101848.41;5050060;28;20592;-75
2022/01/22 09:01:10;;;;;;;13.87;4.47;;;;;;;-0.22;100.00;101844.31;5038266;28;20212;-75
2022/01/22 09:03:40;;;;;;;8.90;3.97;;;;;;;-0.23;100.00;101857.94;5037178;28;20219;-75
2022/01/22 09:06:28;;;;;;;13.53;4.20;;;;;;;-0.27;100.00;101867.22;5035930;28;20296;-75
2022/01/22 09:09:13;;;;;;;9.60;4.57;;;;;;;-0.28;100.00;101875.75;5045004;28;20756;-75
2022/01/22 09:11:50;;;;;;;9.10;3.83;;;;;;;-0.26;100.00;101878.38;5051540;28;20838;-75
2022/01/22 09:14:34;;;;;;;11.70;4.90;;;;;;;-0.26;100.00;101881.78;5037155;28;20628;-75
2022/01/22 09:17:02;;;;;;;15.60;10.20;;;;;;;-0.23;100.00;101879.34;5040015;28;20268;-75
2022/01/22 09:19:33;;;;;;;34.07;13.67;;;;;;;-0.20;100.00;101879.44;5038235;28;20655;-75
2022/01/22 09:22:06;;;;;;;20.23;13.27;;;;;;;-0.17;100.00;101882.97;5037746;28;20206;-75
2022/01/22 09:24:33;;;;;;;12.53;5.73;;;;;;;-0.15;100.00;101886.47;5038081;28;20316;-75
2022/01/22 09:27:04;;;;;;;16.17;7.77;;;;;;;-0.13;100.00;101901.06;5056127;28;20231;-75
2022/01/22 09:29:31;;;;;;;15.73;9.40;;;;;;;-0.10;100.00;101905.47;5035987;28;20210;-75
2022/01/22 09:32:00;;;;;;;12.87;6.20;;;;;;;-0.08;100.00;101912.38;5038813;28;20264;-75
2022/01/22 09:34:55;;;;;;;9.30;6.07;;;;;;;0.01;100.00;101919.53;5052281;28;20556;-75
2022/01/22 09:37:39;;;;;;;13.13;5.43;;;;;;;0.03;100.00;101912.78;5034671;28;20228;-75
2022/01/22 09:40:26;;;;;;;12.70;5.60;;;;;;;0.06;100.00;101914.59;5035804;28;20211;-75
2022/01/22 09:43:13;;;;;;;8.13;4.67;;;;;;;0.11;100.00;101920.78;5038854;28;20559;-75
2022/01/22 09:46:18;;;;;;;13.33;5.10;;;;;;;0.14;100.00;101926.91;5028229;28;20791;-75
2022/01/22 09:48:50;;;;;;;9.50;4.97;;;;;;;0.17;100.00;101932.13;5035030;28;20313;-75
2022/01/22 09:51:38;;;;;;;18.83;8.17;;;;;;;0.20;100.00;101944.19;5036598;28;20208;-75
2022/01/22 09:54:14;;;;;;;11.37;4.20;;;;;;;0.24;100.00;101937.50;5034928;28;20210;-75
2022/01/22 09:57:03;;;;;;;8.77;3.73;;;;;;;0.25;100.00;101941.81;5034517;28;20230;-75
2022/01/22 09:59:54;;;;;;;14.47;5.90;;;;;;;0.28;100.00;101932.53;5030458;28;20231;-75
2022/01/22 10:02:42;;;;;;;11.23;5.87;;;;;;;0.36;100.00;101938.81;5037849;28;20325;-75
2022/01/22 10:05:29;;;;;;;10.27;4.30;;;;;;;0.38;100.00;101941.44;5029653;28;20243;-75
2022/01/22 10:08:24;;;;;;;18.80;8.10;;;;;;;0.43;100.00;101937.34;5040344;28;20562;-75
2022/01/22 10:11:18;;;;;;;9.47;4.93;;;;;;;0.51;100.00;101943.63;5034894;28;20580;-75
2022/01/22 10:14:04;;;;;;;14.07;4.13;;;;;;;0.59;100.00;101948.19;5037518;28;20721;-75
2022/01/22 10:16:32;;;;;;;9.27;3.50;;;;;;;0.65;100.00;101961.22;5040788;28;20236;-75
2022/01/22 10:19:12;;;;;;;7.20;3.63;;;;;;;0.66;100.00;101966.41;5038472;28;20211;-75
2022/01/22 10:21:40;;;;;;;12.40;5.37;;;;;;;0.75;100.00;101969.28;5039137;28;20199;-75
2022/01/22 10:24:32;;;;;;;12.30;3.60;;;;;;;0.74;100.00;101969.28;5035178;28;20225;-75
2022/01/22 10:27:21;;;;;;;7.70;3.50;;;;;;;0.81;100.00;101970.34;5038577;28;20306;-75
2022/01/22 10:29:51;;;;;;;5.63;3.10;;;;;;;0.83;100.00;101973.84;5035696;28;20669;-75
2022/01/22 10:32:19;;;;;;;6.77;4.47;;;;;;;0.88;100.00;101974.88;5037458;28;20691;-75
2022/01/22 10:35:07;;;;;;;5.00;3.23;;;;;;;0.78;100.00;101971.13;5036838;28;20689;-75
2022/01/22 10:37:54;;;;;;;8.70;2.50;;;;;;;0.72;100.00;101970.88;5035214;28;20237;-75
2022/01/22 10:40:27;;;;;;;7.87;3.10;;;;;;;0.71;100.00;101970.00;5034366;28;20538;-75
2022/01/22 10:43:19;;;;;;;5.50;3.27;;;;;;;0.73;100.00;101959.81;5032707;28;21849;-75
2022/01/22 10:46:02;;;;;;;6.07;2.60;;;;;;;0.74;100.00;101959.88;5036896;28;20242;-75
2022/01/22 10:48:32;;;;;;;4.07;2.53;;;;;;;0.76;100.00;101970.19;5042756;28;20215;-75
2022/01/22 10:51:05;;;;;;;16.43;5.83;;;;;;;0.79;100.00;101980.53;5028913;28;20202;-74
2022/01/22 10:53:44;;;;;;;6.67;3.20;;;;;;;0.84;100.00;101981.59;5039502;28;20207;-75
2022/01/22 10:56:13;;;;;;;7.97;3.37;;;;;;;0.82;100.00;101987.50;5039243;28;20195;-75
2022/01/22 10:58:53;;;;;;;8.00;4.20;;;;;;;0.89;100.00;101997.16;5038394;28;20232;-74
2022/01/22 11:01:21;;;;;;;6.03;3.07;;;;;;;0.98;100.00;102000.06;5042976;28;20203;-74
2022/01/22 11:03:48;;;;;;;5.13;2.47;;;;;;;1.18;100.00;101997.31;5037602;28;20689;-74
2022/01/22 11:06:26;;;;;;;4.27;2.87;;;;;;;1.25;100.00;101994.13;5039353;28;20212;-74
2022/01/22 11:08:52;;;;;;;2.97;2.37;;;;;;;1.23;100.00;101998.34;5037301;28;20735;-74
2022/01/22 11:11:59;;;;;;;5.07;1.30;;;;;;;1.12;100.00;102001.41;5045389;28;20541;-74
2022/01/22 11:14:29;;;;;;;3.67;1.93;;;;;;;1.01;100.00;102001.88;5040421;28;20494;-74
2022/01/22 11:16:57;;;;;;;6.10;2.47;;;;;;;0.90;100.00;102006.63;5043839;28;20594;-74
2022/01/22 11:19:30;;;;;;;3.27;1.80;;;;;;;0.97;100.00;102007.69;5041347;28;20207;-74
2022/01/22 11:21:57;;;;;;;6.10;3.00;;;;;;;1.03;100.00;102011.38;5040488;28;20288;-74
2022/01/22 11:24:26;;;;;;;7.30;2.77;;;;;;;1.03;100.00;102016.50;5044941;28;20225;-77
2022/01/22 11:26:54;;;;;;;5.10;2.03;;;;;;;1.15;100.00;102008.34;5041408;28;20604;-77
2022/01/22 11:29:24;;;;;;;4.77;2.07;;;;;;;1.24;100.00;102006.09;5042374;28;20242;-77
2022/01/22 11:31:53;;;;;;;3.03;1.63;;;;;;;1.30;100.00;102006.31;5036887;28;20211;-77
2022/01/22 11:34:23;;;;;;;3.00;2.07;;;;;;;1.24;100.00;102005.22;5045297;28;20207;-77
2022/01/22 11:36:55;;;;;;;3.17;2.80;;;;;;;1.25;100.00;102004.41;5039361;28;20424;-77
2022/01/22 11:39:25;;;;;;;2.83;2.20;;;;;;;1.20;100.00;102000.81;5044853;28;20203;-74
2022/01/22 11:41:53;;;;;;;2.80;2.00;;;;;;;1.17;100.00;102000.72;5035620;28;20210;-74
2022/01/22 11:44:25;;;;;;;2.87;1.87;;;;;;;1.15;100.00;102008.34;5044950;28;20214;-74
2022/01/22 11:47:09;;;;;;;3.97;1.30;;;;;;;1.21;100.00;101999.97;5039894;28;20266;-74
2022/01/22 11:49:36;;;;;;;2.37;1.80;;;;;;;1.38;100.00;102013.41;5040997;28;20243;-76
2022/01/22 11:52:24;;;;;;;2.90;1.40;;;;;;;1.51;100.00;102016.44;5041025;28;20200;-77
2022/01/22 11:54:52;;;;;;;1.13;1.03;;;;;;;1.61;98.56;102016.75;5036296;28;20264;-77
2022/01/22 11:57:19;;;;;;;2.13;1.60;;;;;;;1.54;95.36;102015.66;5043480;28;20586;-76
2022/01/22 11:59:47;;;;;;;3.43;1.30;;;;;;;1.50;96.35;102024.97;5034600;28;20474;-74
2022/01/22 12:02:16;;;;;;;4.43;2.30;;;;;;;1.48;95.30;102024.06;5042482;28;20210;-74
2022/01/22 12:05:04;;;;;;;4.67;2.40;;;;;;;1.52;96.76;102025.91;5035329;28;20223;-74
2022/01/22 12:07:35;;;;;;;3.30;1.40;;;;;;;1.40;97.08;102022.03;5032145;28;20227;-74
2022/01/22 12:10:36;;;;;;;2.93;0.90;;;;;;;1.23;94.62;102012.06;5038007;28;20741;-74
2022/01/22 12:16:06;;;;;;;1.83;1.00;;;;;;;1.03;95.64;102007.94;5045141;28;20298;-74
2022/01/22 12:18:38;;;;;;;1.80;1.37;;;;;;;1.05;95.18;102006.28;5039365;28;20226;-74
2022/01/22 12:23:54;;;;;;;4.80;1.33;;;;;;;1.17;95.31;102013.56;5037042;28;20203;-74
2022/01/22 12:26:43;;;;;;;4.73;1.60;;;;;;;1.27;96.37;102010.50;5040173;28;20224;-74
2022/01/22 12:29:32;;;;;;;4.57;1.27;;;;;;;1.29;95.67;102014.84;5044309;28;20578;-74
2022/01/22 12:35:14;;;;;;;6.53;2.93;;;;;;;1.35;93.68;102013.31;5031236;28;20195;-76
2022/01/22 12:37:46;;;;;;;3.13;2.43;;;;;;;1.35;92.24;102018.44;5037547;28;20351;-77
2022/01/22 12:40:14;;;;;;;3.13;2.50;;;;;;;1.40;91.59;102019.47;5039952;28;20309;-77
2022/01/22 12:42:52;;;;;;;2.50;1.40;;;;;;;1.50;92.03;102021.53;5041018;28;20206;-77
2022/01/22 12:45:19;;;;;;;3.63;1.40;;;;;;;1.55;91.16;102031.94;5038054;28;20328;-77
2022/01/22 12:47:47;;;;;;;1.87;0.97;;;;;;;1.63;92.88;102025.38;5041229;28;20219;-77
2022/01/22 12:50:15;;;;;;;5.27;2.80;;;;;;;1.68;92.07;102034.97;5030348;28;20210;-77
2022/01/22 12:52:46;;;;;;;3.87;1.87;;;;;;;1.64;92.19;102033.16;5036913;28;20199;-77
2022/01/22 12:55:17;;;;;;;1.87;1.20;;;;;;;1.58;90.99;102022.66;5039297;28;20203;-77